Data for 03/21/2015

Time Sea-Level Adjusted Pressure Absolute Pressure Temperature Relative Humidity Dew Point   
(mb) (inHg) (mb) (inHg) (C) (F) (%) (C) (F)
00:05 1018 30.06 847 25.01 8 46.4 33 -7.4 18.7
00:10 1018 30.06 847 25.01 7.8 46.1 34 -7.2 19
00:15 1018 30.06 847 25.01 7.6 45.7 34 -7.3 18.9
00:20 1018 30.06 847 25.01 7.6 45.6 35 -7 19.3
00:25 1018 30.06 847 25.01 7.5 45.5 34 -7.2 19
00:30 1018 30.06 847 25.01 7.6 45.7 33 -7.6 18.2
00:35 1018 30.06 847 25.01 7.9 46.2 32 -7.6 18.4
00:40 1018 30.06 847 25.01 8 46.4 33 -7.4 18.7
00:45 1018 30.06 847 25.01 7.9 46.3 33 -7.3 18.8
00:50 1018 30.06 847 25.01 7.8 46.1 33 -7.4 18.6
00:55 1018 30.06 847 25.01 7.9 46.2 33 -7.3 18.9
01:00 1018 30.06 847 25.01 7.7 45.9 34 -7.3 18.9
01:05 1018 30.06 847 25.01 7.7 45.8 34 -7.2 19
01:10 1018 30.06 847 25.01 7.5 45.6 34 -7.2 19
01:15 1018 30.06 847 25.01 7.4 45.4 35 -7 19.4
01:20 1018 30.06 847 25.01 7.4 45.4 34 -7.5 18.5
01:25 1018 30.06 847 25.01 7.7 45.8 33 -7.5 18.5
01:30 1018 30.06 847 25.01 7.8 46 34 -7.2 19
01:35 1018 30.06 847 25.01 7.5 45.5 35 -7 19.4
01:40 1018 30.06 847 25.01 7.6 45.6 33 -7.6 18.4
01:45 1018 30.06 847 25.01 7.5 45.4 36 -6.7 20
01:50 1018 30.06 847 25.01 7.1 44.9 36 -6.8 19.7
01:55 1018 30.06 847 25.01 7.2 45 35 -7.2 19.1
02:00 1018 30.06 847 25.01 7.5 45.6 35 -7.1 19.3
02:05 1018 30.06 847 25.01 7.5 45.6 34 -7.2 19.1
02:10 1018 30.06 847 25.01 7.5 45.6 35 -6.9 19.6
02:15 1018 30.06 847 25.01 7.5 45.4 35 -7 19.4
02:20 1018 30.06 847 25.01 7.5 45.5 35 -7.1 19.1
02:25 1018 30.06 847 25.01 7.5 45.6 35 -6.9 19.6
02:30 1018 30.06 847 25.01 7.3 45.1 37 -6.3 20.6
02:35 1018 30.06 847 25.01 7.1 44.7 36 -7.1 19.2
02:40 1017 30.03 847 25.01 7.3 45.2 36 -6.7 20
02:45 1017 30.03 847 25.01 7.2 44.9 37 -6.7 20
02:50 1017 30.03 847 25.01 7.2 44.9 36 -7 19.5
02:55 1017 30.03 846 24.98 7.3 45.1 37 -6.6 20.2
03:00 1017 30.03 846 24.98 7.1 44.7 39 -6 21.2
03:05 1017 30.03 846 24.98 6.7 44 40 -5.9 21.4
03:10 1017 30.03 846 24.98 6.4 43.5 40 -6.3 20.7
03:15 1017 30.03 846 24.98 6.5 43.8 39 -6.5 20.3
03:20 1017 30.03 846 24.98 6.7 44 38 -6.7 19.9
03:25 1017 30.03 846 24.98 6.8 44.2 37 -6.8 19.7
03:30 1017 30.03 846 24.98 6.9 44.4 36 -7.2 19.1
03:35 1017 30.03 846 24.98 7.2 45 35 -7.2 19
03:40 1017 30.03 846 24.98 7.2 45 36 -6.8 19.8
03:45 1017 30.03 846 24.98 7.1 44.8 35 -7.2 19.1
03:50 1017 30.03 846 24.98 7 44.7 37 -6.8 19.8
03:55 1017 30.03 846 24.98 6.8 44.3 37 -6.8 19.8
04:00 1017 30.03 846 24.98 6.9 44.5 35 -7.4 18.7
04:05 1017 30.03 846 24.98 7.3 45.1 35 -7.2 19
04:10 1017 30.03 846 24.98 7.2 44.9 36 -7 19.3
04:15 1017 30.03 846 24.98 7.2 44.9 34 -7.6 18.3
04:20 1017 30.03 846 24.98 7.3 45.1 35 -7.2 19
04:25 1017 30.03 846 24.98 7.3 45.2 34 -7.5 18.5
04:30 1017 30.03 846 24.98 7.4 45.4 34 -7.3 18.8
04:35 1017 30.03 846 24.98 7.4 45.3 35 -6.9 19.5
04:40 1017 30.03 846 24.98 7.1 44.9 36 -6.9 19.6
04:45 1017 30.03 846 24.98 6.9 44.5 37 -6.8 19.7
04:50 1017 30.03 846 24.98 6.7 44 39 -6.4 20.5
04:55 1017 30.03 846 24.98 6.4 43.5 39 -6.5 20.2
05:00 1017 30.03 846 24.98 6.5 43.7 38 -6.7 20
05:05 1017 30.03 846 24.98 6.5 43.7 37 -7 19.4
05:10 1017 30.03 846 24.98 6.6 43.9 38 -6.8 19.8
05:15 1017 30.03 846 24.98 6.7 44 37 -7 19.3
05:20 1017 30.03 846 24.98 6.7 44.1 36 -7.2 19
05:25 1017 30.03 846 24.98 6.9 44.4 35 -7.5 18.5
05:30 1017 30.03 846 24.98 7.2 44.9 34 -7.7 18.2
05:35 1017 30.03 846 24.98 7.3 45.1 34 -7.6 18.4
05:40 1017 30.03 846 24.98 7.3 45.1 34 -7.7 18.1
05:45 1017 30.03 846 24.98 7.4 45.2 34 -7.6 18.3
05:50 1017 30.03 846 24.98 7.1 44.8 35 -7.2 19
05:55 1017 30.03 846 24.98 6.6 43.8 37 -6.9 19.5
06:00 1017 30.03 846 24.98 6.4 43.4 37 -7.2 19
06:05 1017 30.03 846 24.98 6.6 43.8 36 -7.6 18.4
06:10 1017 30.03 846 24.98 6.9 44.4 34 -7.7 18.1
06:15 1016 30 846 24.98 7.1 44.8 33 -8.1 17.4
06:20 1016 30 846 24.98 7.3 45.2 33 -8 17.7
06:25 1016 30 846 24.98 7.2 44.9 34 -7.7 18.1
06:30 1016 30 846 24.98 6.9 44.5 34 -7.8 18
06:35 1016 30 846 24.98 6.9 44.3 34 -8 17.5
06:40 1016 30 846 24.98 7.1 44.8 34 -7.9 17.8
06:45 1016 30 846 24.98 7.1 44.7 33 -8.1 17.5
06:50 1016 30 846 24.98 7.3 45.2 32 -8.2 17.3
06:55 1016 30 846 24.98 7.6 45.7 32 -7.9 17.7
07:00 1016 30 846 24.98 7.8 46 32 -8 17.6
07:05 1016 30 846 24.98 8 46.3 31 -8 17.6
07:10 1016 30 846 24.98 8.2 46.7 31 -8 17.6
07:15 1017 30.03 846 24.98 8.3 46.9 31 -7.8 17.9
07:20 1017 30.03 846 24.98 8.3 46.9 31 -8 17.6
07:25 1017 30.03 846 24.98 8.3 46.9 31 -7.9 17.7
07:30 1016 30 846 24.98 8.4 47.1 30 -8 17.6
07:35 1017 30.03 846 24.98 8.5 47.3 31 -7.7 18.1
07:40 1017 30.03 846 24.98 8.5 47.4 31 -7.7 18.1
07:45 1017 30.03 846 24.98 8.7 47.6 31 -7.5 18.5
07:50 1017 30.03 846 24.98 8.9 48 30 -7.6 18.4
07:55 1017 30.03 846 24.98 8.9 48 31 -7.3 18.8
08:00 1017 30.03 846 24.98 9 48.2 30 -7.5 18.5
08:05 1017 30.03 846 24.98 9.2 48.5 31 -7.2 19
08:10 1017 30.03 846 24.98 9.3 48.7 31 -6.9 19.6
08:15 1017 30.03 846 24.98 10.3 50.5 28 -7.5 18.4
08:20 1017 30.03 846 24.98 11.1 52 26 -7.8 18
08:25 1017 30.03 846 24.98 11.7 53.1 26 -7 19.4
08:30 1017 30.03 846 24.98 11.7 53 26 -7.3 18.9
08:35 1017 30.03 846 24.98 12.1 53.8 25 -7.5 18.5
08:40 1017 30.03 846 24.98 12.8 55.1 25 -6.6 20
08:45 1017 30.03 846 24.98 13.3 56 25 -6.3 20.7
08:50 1017 30.03 846 24.98 13.6 56.5 23 -6.9 19.6
08:55 1016 30 846 24.98 13.7 56.7 21 -7.9 17.8
09:00 1016 30 846 24.98 13 55.4 21 -8.8 16.1
09:05 1016 30 846 24.98 12.8 55 22 -8.5 16.6
09:10 1016 30 846 24.98 13.2 55.7 21 -8.6 16.4
09:15 1016 30 846 24.98 13.4 56.2 21 -8.7 16.4
09:20 1016 30 846 24.98 13.5 56.3 22 -7.5 18.4
09:25 1016 30 846 24.98 13.3 56 23 -7.4 18.6
09:30 1016 30 846 24.98 13.4 56.1 21 -8.3 17.1
09:35 1016 30 845 24.95 13.1 55.6 24 -7 19.4
09:40 1016 30 845 24.95 13.3 56 23 -7.2 19
09:45 1016 30 845 24.95 13.6 56.4 23 -7.1 19.3
09:50 1016 30 845 24.95 13.4 56 23 -7.4 18.6
09:55 1016 30 845 24.95 14 57.2 21 -8.2 17.2
10:00 1016 30 845 24.95 14.4 57.9 20 -8 17.6
10:05 1016 30 845 24.95 14.6 58.3 23 -6.4 20.5
10:10 1016 30 845 24.95 14.2 57.6 23 -6.8 19.7
10:15 1016 30 845 24.95 15 59.1 21 -7.2 19.1
10:20 1016 30 845 24.95 15.7 60.2 20 -7.4 18.6
10:25 1016 30 845 24.95 15.6 60.2 21 -6.9 19.7
10:30 1016 30 845 24.95 15.3 59.5 22 -6.3 20.6
10:35 1016 30 845 24.95 14.8 58.7 21 -7.1 19.2
10:40 1016 30 845 24.95 15.4 59.7 21 -7 19.3
10:45 1016 30 845 24.95 15.9 60.7 20 -7.1 19.2
10:50 1016 30 845 24.95 16.7 62 19 -7.3 18.9
10:55 1016 30 845 24.95 17.3 63.2 18 -7.2 19.1
11:00 1016 30 845 24.95 17.3 63.2 19 -6.6 20.2
11:05 1016 30 845 24.95 16.2 61.2 19 -7.2 19
11:10 1016 30 845 24.95 16.8 62.3 17 -8.1 17.4
11:15 1016 30 845 24.95 17.3 63.1 18 -6.9 19.6
11:20 1016 30 845 24.95 16.7 62 18 -7.6 18.3
11:25 1015 29.97 845 24.95 16.8 62.3 18 -7.2 19
11:30 1015 29.97 845 24.95 16.6 61.9 19 -7.3 18.9
11:35 1015 29.97 845 24.95 16.5 61.7 19 -6.9 19.6
11:40 1015 29.97 845 24.95 16.2 61.1 19 -7.3 18.9
11:45 1016 30 845 24.95 16.1 60.9 20 -6.6 20.2
11:50 1016 30 845 24.95 16 60.7 21 -6.5 20.4
11:55 1015 29.97 845 24.95 15.8 60.5 18 -8.6 16.5
12:00 1015 29.97 845 24.95 15.7 60.3 18 -8.7 16.3
12:05 1015 29.97 845 24.95 16 60.8 18 -8.6 16.6
12:10 1015 29.97 844 24.92 16.1 61 17 -8.8 16.2
12:15 1015 29.97 844 24.92 16 60.9 17 -9.3 15.2
12:20 1015 29.97 844 24.92 16.1 60.9 15 -10.5 13.1
12:25 1015 29.97 844 24.92 16.6 61.8 15 -10.4 13.2
12:30 1015 29.97 844 24.92 17 62.7 14 -10.5 13
12:35 1015 29.97 844 24.92 17.1 62.7 14 -10.9 12.5
12:40 1015 29.97 844 24.92 16.9 62.5 13 -11.2 11.8
12:45 1015 29.97 844 24.92 17.1 62.8 14 -11 12.3
12:50 1015 29.97 844 24.92 17.1 62.7 14 -10.3 13.5
12:55 1015 29.97 844 24.92 17 62.7 14 -10.4 13.2
13:00 1015 29.97 844 24.92 16.9 62.4 14 -10.3 13.4
13:05 1015 29.97 844 24.92 16.6 61.9 14 -10.7 12.8
13:10 1015 29.97 844 24.92 16.5 61.6 14 -11 12.3
13:15 1015 29.97 844 24.92 16.3 61.4 15 -10.5 13
13:20 1015 29.97 844 24.92 16.2 61.1 15 -10.8 12.6
13:25 1015 29.97 844 24.92 16.2 61.1 15 -10.7 12.7
13:30 1015 29.97 844 24.92 16.2 61.1 15 -10.6 13
13:35 1015 29.97 844 24.92 16 60.8 15 -10.3 13.5
13:40 1015 29.97 845 24.95 15.9 60.7 15 -10.4 13.3
13:45 1015 29.97 845 24.95 15.9 60.6 17 -9 15.8
13:50 1015 29.97 845 24.95 15.8 60.5 17 -9.1 15.5
13:55 1015 29.97 845 24.95 15.6 60.2 16 -9.8 14.3
14:00 1015 29.97 845 24.95 15.5 60 17 -9 15.7
14:05 1015 29.97 845 24.95 15.5 60 18 -8.7 16.3
14:10 1015 29.97 845 24.95 15.5 59.9 18 -8.8 16.1
14:15 1015 29.97 845 24.95 15.5 59.8 18 -8.4 16.9
14:20 1015 29.97 845 24.95 15.5 59.8 19 -8.2 17.3
14:25 1016 30 845 24.95 15.3 59.6 19 -8.4 17
14:30 1016 30 845 24.95 15.4 59.6 19 -7.9 17.7
14:35 1016 30 845 24.95 15.1 59.2 20 -7.7 18.2
14:40 1016 30 845 24.95 14.9 58.8 20 -7.6 18.3
14:45 1016 30 845 24.95 14.8 58.7 21 -7.1 19.2
14:50 1016 30 845 24.95 14.7 58.5 23 -6.4 20.5
14:55 1016 30 845 24.95 14.6 58.3 23 -6.2 20.9
15:00 1016 30 845 24.95 14.5 58.1 23 -6.1 21.1
15:05 1016 30 845 24.95 14.4 57.9 25 -5.4 22.3
15:10 1016 30 845 24.95 13.9 57.1 28 -4.2 24.5
15:15 1016 30 845 24.95 13.3 56 27 -5.1 22.9
15:20 1016 30 845 24.95 13.2 55.8 27 -5.3 22.4
15:25 1016 30 845 24.95 13.3 55.9 27 -5.1 22.8
15:30 1016 30 845 24.95 13.2 55.8 28 -4.8 23.3
15:35 1016 30 845 24.95 13.1 55.7 28 -4.7 23.5
15:40 1016 30 845 24.95 13.1 55.6 29 -4.6 23.7
15:45 1016 30 845 24.95 13.1 55.6 29 -4.6 23.8
15:50 1016 30 845 24.95 13.1 55.6 29 -4.3 24.3
15:55 1016 30 845 24.95 13 55.4 30 -4 24.8
16:00 1016 30 845 24.95 12.7 54.9 31 -3.8 25.2
16:05 1016 30 845 24.95 12.7 54.8 30 -4.3 24.3
16:10 1016 30 845 24.95 12.8 55 31 -4 24.7
16:15 1016 30 845 24.95 12.8 55.1 30 -4.4 24
16:20 1016 30 845 24.95 12.9 55.2 31 -3.9 24.9
16:25 1016 30 845 24.95 12.9 55.2 30 -4.1 24.7
16:30 1016 30 846 24.98 13 55.3 30 -3.9 24.9
16:35 1016 30 846 24.98 13 55.3 31 -3.7 25.3
16:40 1016 30 846 24.98 12.9 55.1 31 -3.8 25.1
16:45 1016 30 846 24.98 12.8 55.1 31 -3.7 25.3
16:50 1016 30 846 24.98 12.8 55 32 -3.5 25.7
16:55 1017 30.03 846 24.98 12.7 54.8 32 -3.5 25.8
17:00 1017 30.03 846 24.98 12.5 54.4 33 -3.5 25.7
17:05 1017 30.03 846 24.98 12.3 54.1 33 -3.3 26
17:10 1017 30.03 846 24.98 12.2 53.9 34 -3.4 25.9
17:15 1017 30.03 846 24.98 12.2 53.9 34 -3 26.6
17:20 1017 30.03 846 24.98 12 53.7 35 -2.9 26.8
17:25 1017 30.03 846 24.98 11.9 53.4 35 -3.1 26.5
17:30 1017 30.03 846 24.98 11.8 53.2 39 -1.6 29.2
17:35 1017 30.03 846 24.98 11.6 52.8 42 -0.9 30.4
17:40 1017 30.03 846 24.98 11 51.9 43 -1 30.1
17:45 1017 30.03 846 24.98 10.9 51.6 40 -2.1 28.2
17:50 1017 30.03 846 24.98 11 51.8 46 -0.3 31.5
17:55 1017 30.03 846 24.98 11 51.9 42 -1.4 29.5
18:00 1017 30.03 846 24.98 11 51.8 42 -1.5 29.3
18:05 1017 30.03 846 24.98 11 51.8 41 -1.6 29.1
18:10 1017 30.03 846 24.98 10.9 51.7 42 -1.3 29.7
18:15 1017 30.03 846 24.98 10.9 51.6 43 -1.1 30
18:20 1017 30.03 846 24.98 10.9 51.6 43 -1.2 29.9
18:25 1017 30.03 846 24.98 10.9 51.5 45 -0.7 30.7
18:30 1017 30.03 846 24.98 10.8 51.4 44 -0.9 30.3
18:35 1017 30.03 846 24.98 10.6 51.2 41 -2 28.4
18:40 1017 30.03 846 24.98 10.6 51.1 43 -1.3 29.7
18:45 1017 30.03 846 24.98 10.6 51.1 48 0 32
18:50 1017 30.03 846 24.98 10.5 50.8 42 -1.9 28.6
18:55 1017 30.03 846 24.98 10.6 51 40 -2.5 27.6
19:00 1017 30.03 846 24.98 10.5 50.9 39 -2.8 26.9
19:05 1017 30.03 846 24.98 10.3 50.5 40 -2.7 27.2
19:10 1017 30.03 846 24.98 9.9 49.8 42 -2.2 28
19:15 1017 30.03 846 24.98 9.6 49.2 43 -2.2 28
19:20 1017 30.03 846 24.98 9.3 48.8 45 -1.9 28.6
19:25 1017 30.03 846 24.98 9 48.3 46 -1.8 28.7
19:30 1017 30.03 846 24.98 8.9 48 46 -2 28.5
19:35 1017 30.03 846 24.98 8.9 48.1 45 -2.3 27.8
19:40 1017 30.03 846 24.98 9 48.2 45 -2.2 28.1
19:45 1017 30.03 846 24.98 8.9 48.1 46 -1.9 28.5
19:50 1017 30.03 846 24.98 8.8 47.8 46 -2 28.3
19:55 1017 30.03 846 24.98 8.7 47.7 47 -1.9 28.6
20:00 1017 30.03 846 24.98 8.4 47 49 -1.7 28.9
20:05 1017 30.03 846 24.98 8 46.3 50 -1.9 28.5
20:10 1017 30.03 846 24.98 8.2 46.7 47 -2.3 27.8
20:15 1017 30.03 846 24.98 8.4 47.2 47 -2.1 28.2
20:20 1017 30.03 846 24.98 8.4 47.2 47 -2.3 27.9
20:25 1017 30.03 847 25.01 8.6 47.5 46 -2.3 27.9
20:30 1017 30.03 847 25.01 8.6 47.5 47 -2 28.4
20:35 1017 30.03 847 25.01 8.4 47.2 47 -2.2 28.1
20:40 1017 30.03 847 25.01 8.4 47.2 47 -2.3 27.8
20:45 1017 30.03 847 25.01 8.4 47.2 49 -1.7 28.9
20:50 1017 30.03 847 25.01 8.1 46.6 50 -1.8 28.8
20:55 1017 30.03 847 25.01 8 46.5 49 -2 28.4
21:00 1017 30.03 847 25.01 8.3 46.9 47 -2.4 27.6
21:05 1017 30.03 847 25.01 8.5 47.2 48 -2 28.4
21:10 1017 30.03 847 25.01 8.4 47.1 49 -1.7 29
21:15 1017 30.03 847 25.01 8.3 46.9 49 -1.9 28.6
21:20 1017 30.03 847 25.01 8.2 46.7 49 -1.9 28.7
21:25 1017 30.03 847 25.01 8.2 46.8 48 -2.1 28.3
21:30 1017 30.03 847 25.01 8.5 47.2 47 -2.2 28.1
21:35 1017 30.03 847 25.01 8.4 47.1 48 -1.9 28.5
21:40 1017 30.03 847 25.01 7.9 46.3 50 -1.9 28.6
21:45 1017 30.03 847 25.01 7.6 45.7 51 -1.8 28.8
21:50 1017 30.03 847 25.01 7.2 45 52 -1.9 28.5
21:55 1017 30.03 847 25.01 7 44.6 54 -1.6 29.1
22:00 1017 30.03 847 25.01 6.6 43.8 56 -1.6 29.2
22:05 1017 30.03 847 25.01 6.3 43.3 57 -1.6 29.1
22:10 1017 30.03 847 25.01 6.3 43.4 56 -1.7 29
22:15 1017 30.03 847 25.01 6.5 43.6 56 -1.7 29
22:20 1017 30.03 847 25.01 6.7 44 54 -1.9 28.6
22:25 1018 30.06 847 25.01 6.9 44.3 54 -1.8 28.8
22:30 1017 30.03 847 25.01 6.9 44.4 54 -1.7 29
22:35 1017 30.03 847 25.01 6.7 44 55 -1.6 29.1
22:40 1017 30.03 847 25.01 6.6 43.8 55 -1.7 28.9
22:45 1018 30.06 847 25.01 6.4 43.5 56 -1.7 29
22:50 1018 30.06 847 25.01 6.1 43 58 -1.6 29.2
22:55 1018 30.06 847 25.01 5.8 42.5 59 -1.5 29.2
23:00 1018 30.06 847 25.01 5.5 41.9 60 -1.6 29
23:05 1018 30.06 847 25.01 5.4 41.7 60 -1.8 28.8
23:10 1018 30.06 847 25.01 5.4 41.8 60 -1.8 28.8
23:15 1018 30.06 847 25.01 5.4 41.7 60 -1.7 28.9
23:20 1018 30.06 847 25.01 5.4 41.7 60 -1.7 29
23:25 1018 30.06 847 25.01 5.2 41.4 61 -1.7 29
23:30 1018 30.06 847 25.01 5.3 41.5 59 -2.2 28
23:35 1018 30.06 847 25.01 4.9 40.8 58 -2.7 27.1
23:40 1018 30.06 847 25.01 4.9 40.8 57 -2.9 26.9
23:45 1018 30.06 847 25.01 4.5 40.1 59 -2.9 26.9
23:50 1018 30.06 848 25.04 4 39.1 61 -2.8 26.9
23:55 1018 30.06 848 25.04 3.7 38.7 62 -2.9 26.7
24:00 1019 30.09 848 25.04 3.8 38.8 62 -2.9 26.9